createdAt,value
2023-01-13T00:03:53.329Z,1739
2023-01-13T00:09:11.239Z,1746
2023-01-13T00:14:29.448Z,1746
2023-01-13T00:19:47.951Z,1745
2023-01-13T00:25:06.149Z,1743
2023-01-13T00:30:24.356Z,1741
2023-01-13T00:35:42.593Z,1752
2023-01-13T00:41:01.588Z,1780
2023-01-13T00:46:20.406Z,1815
2023-01-13T00:51:38.766Z,1835
2023-01-13T00:56:57.594Z,1861
2023-01-13T01:02:15.898Z,1860
2023-01-13T01:07:34.518Z,1879
2023-01-13T01:12:53.325Z,1877
2023-01-13T01:18:11.558Z,1873
2023-01-13T01:23:29.761Z,1872
2023-01-13T01:28:48.237Z,1896
2023-01-13T01:34:06.983Z,1905
2023-01-13T01:39:25.478Z,1910
2023-01-13T01:44:43.450Z,1914
2023-01-13T01:50:02.425Z,1892
2023-01-13T01:55:21.642Z,1881
2023-01-13T02:00:40.486Z,1872
2023-01-13T02:05:59.297Z,1870
2023-01-13T02:11:18.055Z,1854
2023-01-13T02:16:36.583Z,1852
2023-01-13T02:21:54.872Z,1846
2023-01-13T02:27:13.637Z,1837
2023-01-13T02:32:33.251Z,1839
2023-01-13T02:37:51.722Z,1832
2023-01-13T02:43:10.495Z,1828
2023-01-13T02:48:29.034Z,1808
2023-01-13T02:53:47.758Z,1834
2023-01-13T02:59:05.995Z,1835
2023-01-13T03:04:24.783Z,1828
2023-01-13T03:09:43.542Z,1825
2023-01-13T03:15:01.813Z,1816
2023-01-13T03:20:20.185Z,1813
2023-01-13T03:25:38.683Z,1811
2023-01-13T03:30:57.065Z,1805
2023-01-13T03:36:15.747Z,1805
2023-01-13T03:41:33.707Z,1787
2023-01-13T03:46:52.529Z,1782
2023-01-13T03:52:11.361Z,1784
2023-01-13T03:57:29.302Z,1779
2023-01-13T04:02:48.108Z,1762
2023-01-13T04:08:06.934Z,1766
2023-01-13T04:13:25.714Z,1782
2023-01-13T04:18:44.474Z,1810
2023-01-13T04:24:03.024Z,1809
2023-01-13T04:29:21.484Z,1804
2023-01-13T04:34:39.784Z,1810
2023-01-13T04:39:58.034Z,1766
2023-01-13T04:45:16.535Z,1731
2023-01-13T04:50:35.028Z,1729
2023-01-13T04:55:53.857Z,1716
2023-01-13T05:01:11.867Z,1703
2023-01-13T05:06:30.274Z,1698
2023-01-13T05:11:49.099Z,1685
2023-01-13T05:17:07.876Z,1683
2023-01-13T05:22:26.687Z,1679
2023-01-13T05:27:45.215Z,1673
2023-01-13T05:33:04.006Z,1672
2023-01-13T05:38:22.834Z,1665
2023-01-13T05:43:41.268Z,1651
2023-01-13T05:48:59.725Z,1643
2023-01-13T05:54:17.652Z,1646
2023-01-13T05:59:36.448Z,1638
2023-01-13T06:04:39.642Z,1644
2023-01-13T06:09:57.689Z,1663
2023-01-13T06:15:15.970Z,1676
2023-01-13T06:20:34.515Z,1684
2023-01-13T06:25:52.986Z,1667
2023-01-13T06:31:11.558Z,1644
2023-01-13T06:36:30.335Z,1613
2023-01-13T06:41:48.997Z,1594
2023-01-13T06:47:07.263Z,1579
2023-01-13T06:52:25.779Z,1557
2023-01-13T06:57:44.509Z,1535
2023-01-13T07:02:47.502Z,1514
2023-01-13T07:08:06.705Z,1504
2023-01-13T07:13:25.239Z,1515
2023-01-13T07:18:46.930Z,1535
2023-01-13T07:24:04.881Z,1526
2023-01-13T07:29:23.080Z,1516
2023-01-13T07:34:41.641Z,1504
2023-01-13T07:40:00.476Z,1494
2023-01-13T07:45:18.926Z,1490
2023-01-13T07:50:37.531Z,1480
2023-01-13T07:55:55.442Z,1483
2023-01-13T08:01:14.375Z,1476
2023-01-13T08:06:33.087Z,1475
2023-01-13T08:11:51.652Z,1475
2023-01-13T08:17:10.427Z,1472
2023-01-13T08:22:28.992Z,1469
2023-01-13T08:27:47.510Z,1484
2023-01-13T08:33:07.172Z,1486
2023-01-13T08:38:28.442Z,1483
2023-01-13T08:43:47.188Z,1474
2023-01-13T08:49:07.230Z,1477
2023-01-13T08:54:26.370Z,1476
2023-01-13T08:59:45.320Z,1475
2023-01-13T09:05:03.570Z,1487
2023-01-13T09:10:26.158Z,1498
2023-01-13T09:15:47.638Z,1091
2023-01-13T09:21:06.563Z,1004
2023-01-13T09:26:25.100Z,993
2023-01-13T09:31:44.291Z,1020
2023-01-13T09:37:02.959Z,1062
2023-01-13T09:42:26.764Z,1102
2023-01-13T09:47:48.599Z,1118
2023-01-13T09:53:08.053Z,1158
2023-01-13T09:58:26.581Z,1147
2023-01-13T10:03:46.552Z,1140
2023-01-13T10:09:05.118Z,1151
2023-01-13T10:14:08.040Z,1157
2023-01-13T10:19:27.356Z,1161
2023-01-13T10:24:49.013Z,1168
2023-01-13T10:30:07.243Z,1180
2023-01-13T10:35:25.433Z,1186
2023-01-13T10:40:44.286Z,1187
2023-01-13T10:46:02.802Z,1180
2023-01-13T10:51:21.812Z,1180
2023-01-13T10:56:40.704Z,1177
2023-01-13T11:01:59.288Z,1173
2023-01-13T11:07:18.096Z,1171
2023-01-13T11:12:36.588Z,1171
2023-01-13T11:17:54.910Z,1167
2023-01-13T11:23:13.438Z,1168
2023-01-13T11:28:31.817Z,1161
2023-01-13T11:33:50.024Z,1155
2023-01-13T11:39:08.934Z,1154
2023-01-13T11:44:11.834Z,1157
2023-01-13T11:49:30.427Z,1153
2023-01-13T11:54:49.502Z,1148
2023-01-13T12:00:07.840Z,1145
2023-01-13T12:05:26.277Z,1142
2023-01-13T12:10:44.812Z,1143
2023-01-13T12:16:03.320Z,1136
2023-01-13T12:21:21.696Z,1029
2023-01-13T12:26:40.239Z,1038
2023-01-13T12:31:58.816Z,1073
2023-01-13T12:37:17.408Z,1110
2023-01-13T12:42:35.632Z,1112
2023-01-13T12:47:54.180Z,1109
2023-01-13T12:53:12.640Z,1101
2023-01-13T12:58:31.101Z,1096
2023-01-13T13:03:49.628Z,1093
2023-01-13T13:09:08.475Z,1085
2023-01-13T13:14:26.989Z,1084
2023-01-13T13:19:45.820Z,1097
2023-01-13T13:25:04.449Z,1106
2023-01-13T13:30:22.670Z,1109
2023-01-13T13:35:41.085Z,1106
2023-01-13T13:40:59.884Z,1102
2023-01-13T13:46:17.944Z,1092
2023-01-13T13:51:37.871Z,1090
2023-01-13T13:56:58.158Z,1087
2023-01-13T14:02:21.117Z,1082
2023-01-13T14:07:39.808Z,1081
2023-01-13T14:12:58.309Z,1081
2023-01-13T14:18:16.771Z,1084
2023-01-13T14:23:35.603Z,1081
2023-01-13T14:28:53.546Z,1079
2023-01-13T14:34:25.841Z,1089
2023-01-13T14:39:51.584Z,1094
2023-01-13T14:45:09.846Z,1099
2023-01-13T14:50:27.817Z,1099
2023-01-13T14:55:45.872Z,1098
2023-01-13T15:01:04.723Z,1098
2023-01-13T15:06:23.017Z,1104
2023-01-13T15:11:41.244Z,1122
2023-01-13T15:16:59.821Z,1128
2023-01-13T15:22:18.663Z,1129
2023-01-13T15:27:37.139Z,1126
2023-01-13T15:32:55.771Z,1123
2023-01-13T15:38:14.662Z,1127
2023-01-13T15:43:33.157Z,1128
2023-01-13T15:48:53.187Z,1130
2023-01-13T15:54:18.563Z,1134
2023-01-13T15:59:37.361Z,1139
2023-01-13T16:04:56.240Z,1137
2023-01-13T16:10:15.006Z,1109
2023-01-13T16:15:33.247Z,1079
2023-01-13T16:20:52.161Z,1073
2023-01-13T16:26:10.471Z,1034
2023-01-13T16:31:29.193Z,1014
2023-01-13T16:36:47.771Z,1000
2023-01-13T16:42:06.224Z,993
2023-01-13T16:47:24.638Z,991
2023-01-13T16:52:43.139Z,993
2023-01-13T16:58:01.683Z,993
2023-01-13T17:03:20.169Z,999
2023-01-13T17:08:38.436Z,1005
2023-01-13T17:13:56.851Z,1007
2023-01-13T17:19:15.326Z,1002
2023-01-13T17:24:33.355Z,1007
2023-01-13T17:29:51.909Z,1014
2023-01-13T17:35:09.875Z,1020
2023-01-13T17:40:31.635Z,1023
2023-01-13T17:45:49.592Z,1027
2023-01-13T17:51:07.931Z,1047
2023-01-13T17:56:26.556Z,1048
2023-01-13T18:01:45.491Z,1065
2023-01-13T18:07:03.973Z,1058
2023-01-13T18:12:22.546Z,1063
2023-01-13T18:17:42.082Z,1061
2023-01-13T18:23:01.913Z,1067
2023-01-13T18:28:20.494Z,1126
2023-01-13T18:33:39.152Z,1109
2023-01-13T18:38:58.716Z,1101
2023-01-13T18:44:17.006Z,1105
2023-01-13T18:49:41.310Z,1118
2023-01-13T18:54:59.531Z,1132
2023-01-13T19:00:17.855Z,1145
2023-01-13T19:05:36.738Z,1151
2023-01-13T19:10:54.991Z,1162
2023-01-13T19:16:13.712Z,1168
2023-01-13T19:21:32.588Z,1181
2023-01-13T19:26:51.315Z,1189
2023-01-13T19:32:10.098Z,1197
2023-01-13T19:37:28.799Z,1201
2023-01-13T19:42:47.037Z,1207
2023-01-13T19:48:05.789Z,1208
2023-01-13T19:53:24.623Z,1222
2023-01-13T19:58:43.395Z,1240
2023-01-13T20:04:02.259Z,1245
2023-01-13T20:09:20.954Z,1266
2023-01-13T20:14:39.768Z,1280
2023-01-13T20:19:57.780Z,1287
2023-01-13T20:25:16.191Z,1295
2023-01-13T20:30:35.143Z,1307
2023-01-13T20:35:53.642Z,1311
2023-01-13T20:41:12.305Z,1326
2023-01-13T20:46:31.225Z,1337
2023-01-13T20:51:49.316Z,1343
2023-01-13T20:57:07.314Z,1346
2023-01-13T21:02:09.952Z,1365
2023-01-13T21:07:28.225Z,1383
2023-01-13T21:12:47.074Z,1380
2023-01-13T21:17:50.230Z,1384
2023-01-13T21:23:09.057Z,1357
2023-01-13T21:28:27.538Z,1355
2023-01-13T21:33:46.052Z,1408
2023-01-13T21:39:05.556Z,1454
2023-01-13T21:44:24.019Z,1497
2023-01-13T21:49:42.571Z,1554
2023-01-13T21:55:01.111Z,1562
2023-01-13T22:00:19.896Z,1586
2023-01-13T22:05:38.086Z,1597
2023-01-13T22:10:56.748Z,1609
2023-01-13T22:16:16.674Z,1626
2023-01-13T22:21:35.400Z,1642
2023-01-13T22:26:54.162Z,1642
2023-01-13T22:32:12.958Z,1633
2023-01-13T22:37:31.448Z,1635
2023-01-13T22:42:50.272Z,1632
2023-01-13T22:48:08.243Z,1638
2023-01-13T22:53:26.787Z,1636
2023-01-13T22:58:45.009Z,1633
2023-01-13T23:04:03.915Z,1632
2023-01-13T23:09:22.473Z,1635
2023-01-13T23:14:41.234Z,1642
2023-01-13T23:20:00.307Z,1650
2023-01-13T23:25:22.911Z,1653
2023-01-13T23:30:41.808Z,1659
2023-01-13T23:36:00.379Z,1665
2023-01-13T23:41:18.873Z,1672
2023-01-13T23:46:37.882Z,1670
2023-01-13T23:51:56.376Z,1686
2023-01-13T23:57:14.887Z,1687
